This is the latest recevied weather packets stored in our database for station/object IT9CYW-10. If no packets are shown the sender has not sent any weather packets the latest 10 day(s).
| Time | Temp. | Humidity | Pressure | Rain* | Wind** | Luminosity | Snow |
|---|---|---|---|---|---|---|---|
| 1777379277 | 22.78° C | 62% | 996.4 hPa | - | - | 796 W/m² | - |
| 1777378376 | 23.33° C | 59% | 996.4 hPa | - | - | 819 W/m² | - |
| 1777377475 | 22.78° C | 61% | 996.5 hPa | - | - | 845 W/m² | - |
| 1777376575 | 23.89° C | 57% | 996.5 hPa | - | - | 863 W/m² | - |
| 1777374780 | 23.33° C | 59% | 996.4 hPa | - | - | 871 W/m² | - |
| 1777373880 | 23.33° C | 58% | 996.4 hPa | - | - | 867 W/m² | - |
| 1777372980 | 22.78° C | 60% | 996.5 hPa | - | - | 862 W/m² | - |
| 1777372080 | 23.33° C | 60% | 996.5 hPa | - | - | 853 W/m² | - |
| 1777371180 | 23.33° C | 59% | 996.5 hPa | - | - | 841 W/m² | - |
| 1777370280 | 22.78° C | 61% | 996.7 hPa | - | - | 823 W/m² | - |
| 1777369379 | 22.78° C | 61% | 996.7 hPa | - | - | 805 W/m² | - |
| 1777368479 | 22.78° C | 60% | 996.7 hPa | - | - | 783 W/m² | - |
| 1777367579 | 22.22° C | 60% | 997 hPa | - | - | 771 W/m² | - |
| 1777366679 | 22.22° C | 58% | 997 hPa | - | - | 746 W/m² | - |
| 1777365779 | 21.67° C | 58% | 997 hPa | - | - | 729 W/m² | - |
| 1777364879 | 22.22° C | 52% | 996.9 hPa | - | - | 697 W/m² | - |
| 1777363979 | 21.11° C | 53% | 996.9 hPa | - | - | 648 W/m² | - |
| 1777363078 | 21.67° C | 50% | 996.7 hPa | - | - | 601 W/m² | - |
| 1777362179 | 21.11° C | 50% | 996.7 hPa | - | - | 549 W/m² | - |
| 1777361278 | 20.56° C | 52% | 997 hPa | - | - | 504 W/m² | - |
| 1777360378 | 20.56° C | 48% | 997 hPa | - | - | 452 W/m² | - |
| 1777359478 | 20° C | 58% | 996.9 hPa | - | - | 397 W/m² | - |
| 1777358578 | 18.33° C | 65% | 997 hPa | - | - | 327 W/m² | - |
| 1777357678 | 18.89° C | 64% | 997.2 hPa | - | - | 266 W/m² | - |
| 1777356778 | 19.44° C | 64% | 997.2 hPa | - | - | 220 W/m² | - |
* Rain since midnight (hover to see other rain measurements)
** Current wind speed in m/s (hover to see current wind gust speed)